Time;durP1;ratioP1;P1;durP2;ratioP2;P2;SDS_P1;SDS_P2;PMS_P1;PMS_P2;Temp;Humidity;BMP_temperature;BMP_pressure;BME280_temperature;BME280_humidity;BME280_pressure;Samples;Min_cycle;Max_cycle;Signal;HPM_P1;HPM_P2
2021/10/05 00:03:27;;;;;;;9.57;4.50;;;;;;;;;;10482975;28;20610;-69
2021/10/05 00:08:30;;;;;;;7.78;3.90;;;;;;;;;;10486872;28;20469;-71
2021/10/05 00:13:33;;;;;;;12.83;4.10;;;;;;;;;;10484297;28;20392;-71
2021/10/05 00:18:37;;;;;;;7.53;3.97;;;;;;;;;;10483883;28;20451;-71
2021/10/05 00:23:40;;;;;;;8.73;4.32;;;;;;;;;;10491553;28;20044;-69
2021/10/05 00:28:43;;;;;;;9.07;4.72;;;;;;;;;;10488170;28;20535;-69
2021/10/05 00:33:47;;;;;;;8.63;4.33;;;;;;;;;;10485289;28;20056;-71
2021/10/05 00:38:50;;;;;;;8.98;4.53;;;;;;;;;;10487608;28;20041;-69
2021/10/05 00:43:53;;;;;;;10.00;4.40;;;;;;;;;;10485847;28;20508;-69
2021/10/05 00:48:57;;;;;;;13.50;4.93;;;;;;;;;;10485235;28;20041;-71
2021/10/05 00:54:00;;;;;;;10.45;4.38;;;;;;;;;;10486621;28;20525;-71
2021/10/05 00:59:03;;;;;;;12.65;5.15;;;;;;;;;;10479187;28;20789;-70
2021/10/05 01:04:07;;;;;;;11.40;4.65;;;;;;;;;;10483612;28;20040;-69
2021/10/05 01:09:10;;;;;;;9.25;4.57;;;;;;;;;;10485714;28;20522;-70
2021/10/05 01:14:18;;;;;;;10.52;4.35;;;;;;;;;;10484030;28;20045;-67
2021/10/05 01:19:22;;;;;;;10.38;5.07;;;;;;;;;;10477208;28;20400;-71
2021/10/05 01:24:27;;;;;;;10.73;5.07;;;;;;;;;;10487098;28;20052;-70
2021/10/05 01:29:31;;;;;;;11.70;5.68;;;;;;;;;;10484484;28;20546;-69
2021/10/05 01:34:54;;;;;;;;;;;;;;;;;;10479277;28;20036;-70
2021/10/05 01:39:58;;;;;;;17.45;5.85;;;;;;;;;;10485002;28;19947;-70
2021/10/05 01:45:01;;;;;;;12.05;6.03;;;;;;;;;;10482971;28;21662;-71
2021/10/05 01:50:04;;;;;;;12.50;5.93;;;;;;;;;;10484575;28;20036;-70
2021/10/05 01:55:09;;;;;;;14.05;6.40;;;;;;;;;;10484990;28;20487;-70
2021/10/05 02:00:12;;;;;;;14.45;6.63;;;;;;;;;;10485420;28;20675;-71
2021/10/05 02:05:15;;;;;;;14.60;7.17;;;;;;;;;;10482821;28;20036;-71
2021/10/05 02:10:19;;;;;;;16.95;6.43;;;;;;;;;;10485079;28;20053;-70
2021/10/05 02:15:22;;;;;;;14.57;7.05;;;;;;;;;;10483064;28;20071;-70
2021/10/05 02:20:25;;;;;;;17.05;7.35;;;;;;;;;;10483498;28;20047;-71
2021/10/05 02:25:29;;;;;;;15.73;7.63;;;;;;;;;;10482426;28;20080;-72
2021/10/05 02:30:32;;;;;;;21.15;6.90;;;;;;;;;;10486503;28;20047;-72
2021/10/05 02:35:35;;;;;;;14.00;6.90;;;;;;;;;;10481606;28;20044;-71
2021/10/05 02:40:39;;;;;;;16.20;6.63;;;;;;;;;;10484129;28;20045;-70
2021/10/05 02:45:42;;;;;;;16.73;7.05;;;;;;;;;;10477381;28;20044;-70
2021/10/05 02:50:45;;;;;;;16.05;6.95;;;;;;;;;;10478955;28;20071;-70
2021/10/05 02:55:49;;;;;;;14.20;6.32;;;;;;;;;;10482861;28;20518;-70
2021/10/05 03:00:52;;;;;;;17.45;6.95;;;;;;;;;;10480011;28;20067;-69
2021/10/05 03:05:55;;;;;;;14.48;6.70;;;;;;;;;;10480518;28;20048;-70
2021/10/05 03:11:00;;;;;;;14.00;6.03;;;;;;;;;;10478474;28;20123;-71
2021/10/05 03:16:03;;;;;;;15.70;6.45;;;;;;;;;;10482148;28;20040;-70
2021/10/05 03:21:06;;;;;;;17.52;7.18;;;;;;;;;;10479606;28;20159;-72
2021/10/05 03:26:10;;;;;;;14.87;6.80;;;;;;;;;;10482727;28;20042;-71
2021/10/05 03:31:13;;;;;;;15.77;6.50;;;;;;;;;;10478404;28;20434;-69
2021/10/05 03:36:16;;;;;;;16.57;7.13;;;;;;;;;;10477971;28;20085;-71
2021/10/05 03:41:23;;;;;;;16.50;6.38;;;;;;;;;;10478337;28;20055;-69
2021/10/05 03:46:25;;;;;;;13.95;6.05;;;;;;;;;;10480344;28;20180;-71
2021/10/05 03:51:28;;;;;;;15.93;6.60;;;;;;;;;;10488747;28;20514;-71
2021/10/05 03:56:33;;;;;;;18.17;7.25;;;;;;;;;;10489906;28;20044;-70
2021/10/05 04:01:35;;;;;;;12.68;5.45;;;;;;;;;;10484101;28;20052;-70
2021/10/05 04:06:39;;;;;;;15.48;6.60;;;;;;;;;;10487687;28;20095;-70
2021/10/05 04:11:46;;;;;;;14.52;6.03;;;;;;;;;;10486885;28;20067;-71
2021/10/05 04:16:48;;;;;;;15.40;5.57;;;;;;;;;;10482644;28;20033;-71
2021/10/05 04:21:51;;;;;;;14.63;6.50;;;;;;;;;;10484457;28;20349;-70
2021/10/05 04:26:55;;;;;;;10.05;4.80;;;;;;;;;;10487754;28;20114;-71
2021/10/05 04:31:58;;;;;;;13.30;5.13;;;;;;;;;;10483429;28;20048;-68
2021/10/05 04:37:01;;;;;;;19.03;8.07;;;;;;;;;;10484532;28;20105;-70
2021/10/05 04:42:06;;;;;;;16.42;7.00;;;;;;;;;;10482869;28;20055;-70
2021/10/05 04:47:08;;;;;;;18.30;6.90;;;;;;;;;;10483479;28;20094;-69
2021/10/05 04:52:11;;;;;;;17.83;7.07;;;;;;;;;;10479300;28;20040;-69
2021/10/05 04:57:15;;;;;;;23.98;8.05;;;;;;;;;;10482838;28;20121;-72
2021/10/05 05:02:18;;;;;;;18.33;7.82;;;;;;;;;;10483299;28;20114;-72
2021/10/05 05:07:21;;;;;;;19.25;7.78;;;;;;;;;;10480521;28;20055;-72
2021/10/05 05:12:26;;;;;;;22.65;8.68;;;;;;;;;;10483359;28;20036;-71
2021/10/05 05:17:28;;;;;;;12.63;4.72;;;;;;;;;;10479313;28;20407;-72
2021/10/05 05:22:31;;;;;;;18.13;7.47;;;;;;;;;;10475976;28;20064;-71
2021/10/05 05:27:35;;;;;;;11.82;4.50;;;;;;;;;;10478869;28;20147;-71
2021/10/05 05:32:38;;;;;;;18.35;6.68;;;;;;;;;;10482964;28;20041;-69
2021/10/05 05:37:41;;;;;;;9.32;4.50;;;;;;;;;;10483369;28;20037;-70
2021/10/05 05:42:45;;;;;;;13.38;4.03;;;;;;;;;;10478322;28;20040;-69
2021/10/05 05:47:50;;;;;;;20.88;6.75;;;;;;;;;;10468933;28;20135;-70
2021/10/05 05:52:53;;;;;;;16.73;6.38;;;;;;;;;;10476311;28;20076;-70
2021/10/05 05:57:57;;;;;;;18.27;6.72;;;;;;;;;;10474734;28;20072;-70
2021/10/05 06:03:00;;;;;;;16.80;6.03;;;;;;;;;;10478170;28;20037;-69
2021/10/05 06:08:04;;;;;;;15.23;6.25;;;;;;;;;;10473894;28;20388;-70
2021/10/05 06:13:08;;;;;;;19.23;6.23;;;;;;;;;;10477596;28;20029;-70
2021/10/05 06:18:11;;;;;;;17.35;6.32;;;;;;;;;;10470258;28;20501;-70
2021/10/05 06:23:13;;;;;;;16.80;5.55;;;;;;;;;;10476814;28;20040;-72
2021/10/05 06:28:18;;;;;;;10.02;4.20;;;;;;;;;;10474551;28;20056;-71
2021/10/05 06:33:20;;;;;;;17.10;6.40;;;;;;;;;;10475403;28;20055;-70
2021/10/05 06:38:23;;;;;;;16.00;6.70;;;;;;;;;;10478590;28;20048;-71
2021/10/05 06:43:32;;;;;;;17.20;6.05;;;;;;;;;;10469626;28;20380;-69
2021/10/05 06:48:34;;;;;;;10.57;3.75;;;;;;;;;;10471792;28;20570;-71
2021/10/05 06:53:37;;;;;;;15.50;5.80;;;;;;;;;;10472641;28;20124;-68
2021/10/05 06:58:41;;;;;;;10.90;4.25;;;;;;;;;;10464066;28;20119;-69
2021/10/05 07:03:44;;;;;;;12.35;4.30;;;;;;;;;;10475913;28;20039;-70
2021/10/05 07:08:47;;;;;;;11.38;5.00;;;;;;;;;;10473764;28;20417;-69
2021/10/05 07:13:51;;;;;;;12.88;5.05;;;;;;;;;;10469833;28;20222;-69
2021/10/05 07:18:54;;;;;;;13.30;4.63;;;;;;;;;;10467353;28;20062;-71
2021/10/05 07:23:57;;;;;;;12.70;4.83;;;;;;;;;;10476951;28;20131;-70
2021/10/05 07:29:04;;;;;;;11.45;4.18;;;;;;;;;;10481824;28;20102;-69
2021/10/05 07:34:07;;;;;;;9.85;3.45;;;;;;;;;;10481469;28;20218;-71
2021/10/05 07:39:10;;;;;;;9.55;3.65;;;;;;;;;;10478908;28;20040;-71
2021/10/05 07:44:14;;;;;;;11.47;3.83;;;;;;;;;;10473037;28;20037;-71
2021/10/05 07:49:17;;;;;;;5.72;2.22;;;;;;;;;;10477786;28;20115;-68
2021/10/05 07:54:20;;;;;;;6.53;2.03;;;;;;;;;;10485725;28;20075;-71
2021/10/05 07:59:24;;;;;;;11.23;3.83;;;;;;;;;;10481158;28;20408;-72
2021/10/05 08:04:27;;;;;;;9.48;3.90;;;;;;;;;;10485681;28;20078;-70
2021/10/05 08:09:30;;;;;;;10.50;3.80;;;;;;;;;;10487357;28;20044;-70
2021/10/05 08:14:34;;;;;;;8.13;4.07;;;;;;;;;;10474166;28;20052;-71
2021/10/05 08:19:37;;;;;;;6.78;3.25;;;;;;;;;;10481635;28;20120;-68
2021/10/05 08:24:40;;;;;;;4.37;2.37;;;;;;;;;;10475271;28;20057;-70
2021/10/05 08:29:45;;;;;;;9.43;3.60;;;;;;;;;;10479328;28;20044;-71
2021/10/05 08:34:48;;;;;;;7.90;3.03;;;;;;;;;;10482943;28;20086;-71
2021/10/05 08:39:51;;;;;;;3.55;1.95;;;;;;;;;;10486486;28;20115;-72
2021/10/05 08:44:55;;;;;;;3.40;1.80;;;;;;;;;;10488668;28;20043;-71
2021/10/05 08:49:58;;;;;;;5.35;2.72;;;;;;;;;;10485200;28;20151;-71
2021/10/05 08:55:01;;;;;;;4.83;2.30;;;;;;;;;;10479741;28;20045;-71
2021/10/05 09:00:07;;;;;;;4.50;2.10;;;;;;;;;;10481204;28;20040;-71
2021/10/05 09:05:12;;;;;;;7.65;3.58;;;;;;;;;;10483237;28;20105;-70
2021/10/05 09:10:15;;;;;;;7.55;3.33;;;;;;;;;;10485135;28;20032;-71
2021/10/05 09:15:20;;;;;;;4.97;2.42;;;;;;;;;;10481964;28;20154;-71
2021/10/05 09:20:25;;;;;;;6.40;3.42;;;;;;;;;;10480732;28;20037;-70
2021/10/05 09:25:32;;;;;;;5.38;2.63;;;;;;;;;;10483360;28;20120;-68
2021/10/05 09:30:36;;;;;;;8.65;3.72;;;;;;;;;;10482383;28;20093;-69
2021/10/05 09:35:43;;;;;;;8.32;3.63;;;;;;;;;;10481625;28;20068;-69
2021/10/05 09:40:57;;;;;;;7.88;3.78;;;;;;;;;;10479061;28;20593;-69
2021/10/05 09:46:11;;;;;;;10.98;4.35;;;;;;;;;;10483219;28;20045;-70
2021/10/05 09:51:18;;;;;;;8.43;3.03;;;;;;;;;;10478658;28;20097;-71
2021/10/05 09:56:21;;;;;;;7.45;3.58;;;;;;;;;;10484352;28;20040;-71
2021/10/05 10:01:26;;;;;;;6.35;2.90;;;;;;;;;;10473651;28;20036;-70
2021/10/05 10:06:29;;;;;;;7.07;3.20;;;;;;;;;;10480824;28;20059;-72
2021/10/05 10:11:32;;;;;;;8.27;3.55;;;;;;;;;;10483964;28;20111;-70
2021/10/05 10:16:36;;;;;;;5.40;2.77;;;;;;;;;;10483759;28;20051;-70
2021/10/05 10:21:40;;;;;;;4.00;1.98;;;;;;;;;;10473973;28;20446;-71
2021/10/05 10:26:47;;;;;;;3.97;2.57;;;;;;;;;;10482716;28;20044;-70
2021/10/05 10:32:13;;;;;;;6.25;2.50;;;;;;;;;;10473571;28;20327;-70
2021/10/05 10:37:21;;;;;;;4.65;2.45;;;;;;;;;;10479962;28;20094;-69
2021/10/05 10:42:28;;;;;;;5.60;2.47;;;;;;;;;;10474079;28;20037;-71
2021/10/05 10:47:38;;;;;;;5.18;2.90;;;;;;;;;;10479711;28;20056;-70
2021/10/05 10:52:43;;;;;;;5.30;3.13;;;;;;;;;;10470668;28;20461;-70
2021/10/05 10:57:57;;;;;;;2.63;1.45;;;;;;;;;;10483148;28;20036;-71
2021/10/05 11:03:07;;;;;;;5.78;3.38;;;;;;;;;;10487521;28;20540;-69
2021/10/05 11:08:11;;;;;;;8.75;4.40;;;;;;;;;;10486390;28;20451;-68
2021/10/05 11:13:14;;;;;;;3.42;2.10;;;;;;;;;;10475924;28;20102;-70
2021/10/05 11:18:19;;;;;;;3.43;2.03;;;;;;;;;;10484795;28;20127;-70
2021/10/05 11:23:23;;;;;;;5.72;3.10;;;;;;;;;;10509218;28;20314;-68
2021/10/05 11:28:27;;;;;;;7.07;2.97;;;;;;;;;;10479772;28;20120;-71
2021/10/05 11:33:32;;;;;;;5.13;2.22;;;;;;;;;;10481710;28;20052;-71
2021/10/05 11:38:39;;;;;;;8.20;3.45;;;;;;;;;;10486839;28;20045;-71
2021/10/05 11:43:43;;;;;;;4.45;1.58;;;;;;;;;;10486290;28;20110;-69
2021/10/05 11:48:48;;;;;;;4.47;2.72;;;;;;;;;;10478408;28;20053;-70
2021/10/05 11:53:52;;;;;;;5.25;2.67;;;;;;;;;;10477837;28;20666;-69
2021/10/05 11:58:56;;;;;;;6.55;2.92;;;;;;;;;;10485331;28;20044;-71
2021/10/05 12:04:05;;;;;;;5.97;2.67;;;;;;;;;;10482589;28;20062;-70
2021/10/05 12:09:16;;;;;;;5.07;2.10;;;;;;;;;;10484627;28;20419;-70
2021/10/05 12:14:19;;;;;;;7.25;4.20;;;;;;;;;;10476471;28;20121;-68
2021/10/05 12:19:48;;;;;;;5.65;3.17;;;;;;;;;;10484239;28;20101;-69
2021/10/05 12:24:53;;;;;;;5.93;2.80;;;;;;;;;;10483452;28;20131;-71
2021/10/05 12:30:00;;;;;;;5.35;3.10;;;;;;;;;;10485600;28;20075;-70
2021/10/05 12:35:05;;;;;;;6.88;3.65;;;;;;;;;;10481895;28;20036;-72
2021/10/05 12:40:09;;;;;;;4.25;2.80;;;;;;;;;;10481722;28;20227;-71
2021/10/05 12:45:11;;;;;;;;;;;;;;;;;;10485513;28;20098;-70
2021/10/05 12:50:19;;;;;;;4.13;2.70;;;;;;;;;;10481636;28;19920;-70
2021/10/05 12:55:22;;;;;;;4.18;2.40;;;;;;;;;;10473027;28;20088;-70
2021/10/05 13:00:25;;;;;;;5.20;2.55;;;;;;;;;;10480580;28;20045;-69
2021/10/05 13:05:30;;;;;;;4.82;2.38;;;;;;;;;;10463377;28;20191;-69
2021/10/05 13:10:33;;;;;;;5.10;2.30;;;;;;;;;;10469543;28;20133;-70
2021/10/05 13:15:36;;;;;;;3.83;2.20;;;;;;;;;;10478003;28;20408;-70
2021/10/05 13:20:40;;;;;;;4.97;2.73;;;;;;;;;;10478473;28;20144;-69
2021/10/05 13:25:43;;;;;;;4.68;2.22;;;;;;;;;;10474581;28;20306;-68
2021/10/05 13:30:45;;;;;;;5.18;2.72;;;;;;;;;;10474816;28;20404;-70
2021/10/05 13:35:50;;;;;;;5.05;2.30;;;;;;;;;;10475199;28;20125;-71
2021/10/05 13:40:53;;;;;;;4.97;2.58;;;;;;;;;;10480204;28;20481;-70
2021/10/05 13:45:56;;;;;;;4.93;2.43;;;;;;;;;;10471730;28;20048;-69
2021/10/05 13:51:00;;;;;;;6.75;2.25;;;;;;;;;;10476393;28;20310;-71
2021/10/05 13:56:03;;;;;;;5.22;2.47;;;;;;;;;;10478317;28;20459;-70
2021/10/05 14:01:06;;;;;;;4.90;2.10;;;;;;;;;;10475064;28;20672;-70
2021/10/05 14:06:12;;;;;;;5.53;2.55;;;;;;;;;;10473524;28;20522;-69
2021/10/05 14:11:15;;;;;;;7.47;3.20;;;;;;;;;;10478030;28;20044;-71
2021/10/05 14:16:17;;;;;;;4.07;2.47;;;;;;;;;;10480680;28;20074;-71
2021/10/05 14:21:22;;;;;;;5.03;2.70;;;;;;;;;;10473296;28;20159;-70
2021/10/05 14:26:25;;;;;;;3.80;2.30;;;;;;;;;;10477252;28;20090;-69
2021/10/05 14:31:28;;;;;;;4.15;2.15;;;;;;;;;;10476313;28;20067;-69
2021/10/05 14:36:32;;;;;;;4.20;2.08;;;;;;;;;;10472317;28;20040;-69
2021/10/05 14:41:35;;;;;;;3.25;1.75;;;;;;;;;;10475831;28;20142;-69
2021/10/05 14:46:37;;;;;;;5.57;2.20;;;;;;;;;;10469957;28;20369;-70
2021/10/05 14:51:42;;;;;;;2.70;1.37;;;;;;;;;;10477146;28;20643;-70
2021/10/05 14:56:45;;;;;;;3.80;1.75;;;;;;;;;;10475296;28;20052;-70
2021/10/05 15:01:47;;;;;;;5.90;2.27;;;;;;;;;;10482529;28;22284;-69
2021/10/05 15:06:52;;;;;;;4.15;2.13;;;;;;;;;;10477000;28;20048;-69
2021/10/05 15:11:54;;;;;;;3.88;2.13;;;;;;;;;;10476754;28;20056;-70
2021/10/05 15:16:57;;;;;;;8.77;3.33;;;;;;;;;;10474445;28;20067;-70
2021/10/05 15:22:03;;;;;;;2.03;1.50;;;;;;;;;;10476241;28;20056;-71
2021/10/05 15:27:05;;;;;;;4.13;1.50;;;;;;;;;;10479791;28;20589;-71
2021/10/05 15:32:28;;;;;;;2.55;1.40;;;;;;;;;;10470638;28;20037;-70
2021/10/05 15:37:34;;;;;;;3.27;1.90;;;;;;;;;;10477495;28;20093;-69
2021/10/05 15:42:37;;;;;;;4.38;2.00;;;;;;;;;;10480126;28;20484;-69
2021/10/05 15:47:40;;;;;;;5.67;2.60;;;;;;;;;;10484962;28;20453;-70
2021/10/05 15:52:48;;;;;;;6.53;2.47;;;;;;;;;;10479882;28;20051;-71
2021/10/05 15:57:53;;;;;;;3.60;2.03;;;;;;;;;;10487538;28;20044;-71
2021/10/05 16:02:55;;;;;;;3.28;1.88;;;;;;;;;;10478635;28;20048;-70
2021/10/05 16:08:04;;;;;;;2.53;1.67;;;;;;;;;;10477338;28;20559;-70
2021/10/05 16:13:07;;;;;;;3.67;2.13;;;;;;;;;;10487289;28;20226;-68
2021/10/05 16:18:10;;;;;;;5.07;2.47;;;;;;;;;;10483326;28;20036;-69
2021/10/05 16:23:14;;;;;;;5.07;2.63;;;;;;;;;;10484094;28;20037;-72
2021/10/05 16:28:17;;;;;;;5.53;2.70;;;;;;;;;;10484563;28;20098;-71
2021/10/05 16:33:20;;;;;;;12.40;3.38;;;;;;;;;;10486182;28;20102;-72
2021/10/05 16:38:23;;;;;;;;;;;;;;;;;;10486909;28;20082;-68
2021/10/05 16:43:27;;;;;;;4.78;1.90;;;;;;;;;;10487642;28;19920;-70
2021/10/05 16:48:30;;;;;;;5.38;2.40;;;;;;;;;;10478711;28;20450;-70
2021/10/05 16:53:33;;;;;;;2.83;2.03;;;;;;;;;;10484275;28;20119;-71
2021/10/05 16:58:37;;;;;;;7.72;2.13;;;;;;;;;;10476315;28;20103;-72
2021/10/05 17:03:40;;;;;;;5.25;2.65;;;;;;;;;;10478834;28;20090;-71
2021/10/05 17:08:43;;;;;;;3.78;1.83;;;;;;;;;;10487556;28;20040;-71
2021/10/05 17:13:47;;;;;;;3.93;1.90;;;;;;;;;;10483075;28;20720;-70
2021/10/05 17:18:50;;;;;;;5.47;2.85;;;;;;;;;;10477911;28;20475;-72
2021/10/05 17:23:54;;;;;;;6.43;3.47;;;;;;;;;;10478895;28;20123;-73
2021/10/05 17:29:03;;;;;;;5.15;2.38;;;;;;;;;;10485779;28;20477;-70
2021/10/05 17:34:06;;;;;;;6.90;3.70;;;;;;;;;;10477478;28;20091;-71
2021/10/05 17:39:10;;;;;;;10.70;4.20;;;;;;;;;;10480071;28;20574;-69
2021/10/05 17:44:14;;;;;;;8.88;3.88;;;;;;;;;;10461432;28;20048;-68
2021/10/05 17:49:17;;;;;;;11.15;4.60;;;;;;;;;;10472923;28;20068;-69
2021/10/05 17:54:20;;;;;;;5.90;2.55;;;;;;;;;;10465126;28;20357;-67
2021/10/05 17:59:24;;;;;;;5.65;3.03;;;;;;;;;;10453113;28;20412;-67
2021/10/05 18:04:27;;;;;;;7.55;3.65;;;;;;;;;;10471280;28;20037;-70
2021/10/05 18:09:30;;;;;;;6.28;2.15;;;;;;;;;;10450797;28;20040;-69
2021/10/05 18:14:34;;;;;;;3.72;1.85;;;;;;;;;;10451266;28;20516;-69
2021/10/05 18:19:37;;;;;;;4.10;2.28;;;;;;;;;;10453005;28;20172;-69
2021/10/05 18:24:40;;;;;;;9.32;3.90;;;;;;;;;;10451587;28;20052;-67
2021/10/05 18:29:45;;;;;;;8.93;4.13;;;;;;;;;;10449207;28;20052;-69
2021/10/05 18:34:47;;;;;;;4.82;2.65;;;;;;;;;;10449690;28;20123;-71
2021/10/05 18:39:50;;;;;;;7.90;3.40;;;;;;;;;;10480707;28;20068;-73
2021/10/05 18:44:54;;;;;;;6.07;3.28;;;;;;;;;;10477799;28;20041;-72
2021/10/05 18:50:00;;;;;;;6.43;2.92;;;;;;;;;;10479419;28;20040;-72
2021/10/05 18:55:07;;;;;;;7.78;3.72;;;;;;;;;;10454172;28;20037;-70
2021/10/05 19:00:13;;;;;;;5.93;2.83;;;;;;;;;;10447601;28;20157;-70
2021/10/05 19:05:15;;;;;;;4.97;2.10;;;;;;;;;;10448088;28;20521;-70
2021/10/05 19:10:18;;;;;;;12.13;3.80;;;;;;;;;;10450221;28;20449;-70
2021/10/05 19:15:25;;;;;;;5.80;2.58;;;;;;;;;;10454914;28;20052;-70
2021/10/05 19:20:28;;;;;;;9.07;3.80;;;;;;;;;;10461703;28;20364;-69
2021/10/05 19:25:31;;;;;;;7.85;3.47;;;;;;;;;;10461021;28;20131;-68
2021/10/05 19:30:38;;;;;;;7.22;3.13;;;;;;;;;;10452572;28;20044;-70
2021/10/05 19:35:41;;;;;;;4.28;2.58;;;;;;;;;;10469111;28;20071;-70
2021/10/05 19:40:44;;;;;;;5.28;2.80;;;;;;;;;;10454632;28;20045;-69
2021/10/05 19:45:51;;;;;;;5.28;2.60;;;;;;;;;;10475199;28;20037;-67
2021/10/05 19:50:53;;;;;;;5.38;2.85;;;;;;;;;;10476204;28;20052;-70
2021/10/05 19:55:57;;;;;;;5.72;2.60;;;;;;;;;;10464645;28;20083;-71
2021/10/05 20:01:02;;;;;;;7.45;3.70;;;;;;;;;;10470114;28;20071;-68
2021/10/05 20:06:05;;;;;;;5.75;2.42;;;;;;;;;;10457207;28;20036;-70
2021/10/05 20:11:07;;;;;;;5.25;2.42;;;;;;;;;;10458906;28;20044;-69
2021/10/05 20:16:12;;;;;;;4.55;2.47;;;;;;;;;;10475578;28;20489;-68
2021/10/05 20:21:14;;;;;;;3.85;1.85;;;;;;;;;;10477969;28;20098;-70
2021/10/05 20:26:17;;;;;;;7.07;2.80;;;;;;;;;;10485049;28;20061;-70
2021/10/05 20:31:21;;;;;;;5.32;2.03;;;;;;;;;;10485653;28;20037;-71
2021/10/05 20:36:24;;;;;;;2.28;1.42;;;;;;;;;;10484107;28;20040;-69
2021/10/05 20:41:27;;;;;;;7.32;2.97;;;;;;;;;;10479634;28;20075;-73
2021/10/05 20:46:31;;;;;;;2.08;1.30;;;;;;;;;;10486548;28;20573;-74
2021/10/05 20:51:34;;;;;;;2.88;1.90;;;;;;;;;;10484784;28;20048;-73
2021/10/05 20:56:37;;;;;;;4.75;2.55;;;;;;;;;;10481891;28;20075;-76
2021/10/05 21:01:41;;;;;;;3.67;1.70;;;;;;;;;;10482053;28;20040;-77
2021/10/05 21:06:44;;;;;;;1.75;1.05;;;;;;;;;;10483925;28;20041;-77
2021/10/05 21:11:47;;;;;;;3.47;1.77;;;;;;;;;;10488834;28;20060;-76
2021/10/05 21:16:51;;;;;;;2.35;1.25;;;;;;;;;;10506021;28;20056;-73
2021/10/05 21:21:54;;;;;;;3.20;1.60;;;;;;;;;;10486148;28;20050;-72
2021/10/05 21:26:57;;;;;;;2.30;1.50;;;;;;;;;;10486428;28;20037;-74
2021/10/05 21:32:02;;;;;;;1.88;0.88;;;;;;;;;;10483059;28;20052;-71
2021/10/05 21:37:05;;;;;;;3.63;1.55;;;;;;;;;;10481818;28;20076;-73
2021/10/05 21:42:09;;;;;;;4.95;1.60;;;;;;;;;;10476704;28;20165;-72
2021/10/05 21:47:14;;;;;;;0.70;0.60;;;;;;;;;;10486619;28;20032;-71
2021/10/05 21:52:16;;;;;;;4.65;1.70;;;;;;;;;;10482904;28;20064;-70
2021/10/05 21:57:20;;;;;;;4.55;1.95;;;;;;;;;;10482687;28;20049;-73
2021/10/05 22:02:24;;;;;;;1.92;0.70;;;;;;;;;;10484139;28;20094;-71
2021/10/05 22:07:27;;;;;;;3.50;1.33;;;;;;;;;;10478835;28;20055;-73
2021/10/05 22:12:29;;;;;;;4.32;1.90;;;;;;;;;;10482914;28;20097;-73
2021/10/05 22:17:34;;;;;;;1.35;1.20;;;;;;;;;;10480801;28;20518;-72
2021/10/05 22:22:37;;;;;;;3.65;1.90;;;;;;;;;;10482225;28;20136;-71
2021/10/05 22:27:40;;;;;;;3.30;1.80;;;;;;;;;;10481897;28;20531;-72
2021/10/05 22:32:44;;;;;;;3.83;1.75;;;;;;;;;;10479007;28;20306;-71
2021/10/05 22:37:50;;;;;;;4.25;1.80;;;;;;;;;;10482855;28;20041;-73
2021/10/05 22:42:53;;;;;;;1.55;0.95;;;;;;;;;;10481576;28;20513;-70
2021/10/05 22:47:58;;;;;;;1.05;0.90;;;;;;;;;;10475495;28;20044;-71
2021/10/05 22:53:01;;;;;;;2.85;1.50;;;;;;;;;;10477785;28;20060;-70
2021/10/05 22:58:03;;;;;;;3.00;1.90;;;;;;;;;;10488416;28;20066;-71
2021/10/05 23:03:08;;;;;;;5.85;1.30;;;;;;;;;;10489503;28;20074;-70
2021/10/05 23:08:10;;;;;;;3.22;1.00;;;;;;;;;;10488612;28;20063;-72
2021/10/05 23:13:13;;;;;;;2.72;1.40;;;;;;;;;;10490864;28;20063;-71
2021/10/05 23:18:17;;;;;;;1.25;0.77;;;;;;;;;;10487375;28;20064;-71
2021/10/05 23:23:20;;;;;;;0.90;0.65;;;;;;;;;;10489961;28;20066;-72
2021/10/05 23:28:23;;;;;;;2.47;1.02;;;;;;;;;;10490504;28;20102;-72
2021/10/05 23:33:27;;;;;;;2.00;1.02;;;;;;;;;;10488411;28;20040;-71
2021/10/05 23:38:30;;;;;;;1.90;1.10;;;;;;;;;;10490808;28;20044;-70
2021/10/05 23:43:33;;;;;;;2.35;1.17;;;;;;;;;;10489798;28;20143;-71
2021/10/05 23:48:37;;;;;;;1.20;0.85;;;;;;;;;;10487867;28;20680;-71
2021/10/05 23:53:47;;;;;;;1.55;0.60;;;;;;;;;;10486514;28;20048;-71
2021/10/05 23:58:50;;;;;;;0.70;0.60;;;;;;;;;;10487059;28;20124;-70
